Flight Track Log - Related Links

Times and Time Zones

All times are in EDT time to prevent confusion due to time zone crossing. See the EGF4247 flight status page for this flight to view local times or setup timezone preferences in your user account.

Time Position Orientation Groundspeed Altitude Reporting Facility
EDT Latitude Longitude Course Direction KTS MPH feet Rate Location/Type
Sun 03:49:59 PM 42.9333 -78.7500 270° West 146 168 1,500  Level Buffalo TRACON
Sun 03:51:05 PM 42.9000 -78.8167 236° Southwest 211 243 3,800 1,952 Climbing Buffalo TRACON
Sun 03:52:00 PM 42.9526 -79.0971 277° West  Level FlightAware
Sun 03:52:05 PM 42.9000 -78.9000 270° West 276 318 5,600  Level Buffalo TRACON
Sun 03:52:43 PM 42.9000 -78.9500 270° West 270 311 7,100 2,327 Climbing Toronto Center
Sun 03:53:00 PM 42.9631 -79.2240 277° West  Level FlightAware
Sun 03:53:43 PM 42.9000 -79.0667 270° West 280 322 9,400  Level Toronto Center
Sun 03:54:00 PM 42.9667 -79.3515 270° West  Level FlightAware
Sun 03:54:43 PM 42.9167 -79.1833 281° West 300 345 10,800  Level Toronto Center
Sun 03:55:00 PM 42.9667 -79.4792 270° West  Level FlightAware
Sun 03:55:43 PM 42.9167 -79.3000 270° West 330 380 12,200  Level Toronto Center
Sun 03:56:43 PM 42.9333 -79.4333 280° West 340 391 13,900 1,600 Climbing Toronto Center
Sun 03:57:43 PM 42.9333 -79.5667 270° West 350 403 15,400 1,550 Climbing Toronto Center
Sun 03:58:43 PM 42.9500 -79.7000 280° West 350 403 17,000 1,500 Climbing Toronto Center
Sun 03:59:43 PM 42.9500 -79.8333 270° West 360 414 18,400 1,500 Climbing Toronto Center
Sun 04:00:43 PM 42.9667 -79.9667 280° West 360 414 20,000 1,450 Climbing Toronto Center
Sun 04:01:43 PM 42.9667 -80.0833 270° West 370 426 21,300 1,500 Climbing Toronto Center
Sun 04:02:43 PM 42.9833 -80.2500 278° West 370 426 23,000 1,550 Climbing Toronto Center
Sun 04:03:43 PM 42.9833 -80.3833 270° West 370 426 24,400 1,400 Climbing Toronto Center
Sun 04:04:43 PM 43.0000 -80.5167 280° West 370 426 25,800 800 Climbing Toronto Center
Sun 04:05:43 PM 43.0000 -80.6833 270° West 380 437 26,000 100 Climbing Toronto Center
Sun 04:06:43 PM 43.0000 -80.8167 270° West 410 472 26,000  Level Toronto Center
Sun 04:07:43 PM 43.0167 -81.0000 277° West 430 495 26,000  Level Toronto Center
Sun 04:08:43 PM 43.0167 -81.1667 270° West 440 506 26,000  Level Toronto Center
Sun 04:09:43 PM 43.0167 -81.3500 270° West 450 518 26,000  Level Toronto Center
Sun 04:10:43 PM 43.0167 -81.5000 270° West 450 518 26,000  Level Toronto Center
Sun 04:11:43 PM 43.0167 -81.6833 270° West 460 529 26,000  Level Toronto Center
Sun 04:12:43 PM 43.0167 -81.8667 270° West 460 529 26,000  Level Toronto Center
Sun 04:13:43 PM 43.0000 -82.0333 262° West 450 518 26,000  Level Toronto Center
Sun 04:14:43 PM 43.0000 -82.2167 270° West 450 518 26,000  Level Toronto Center
Sun 04:15:43 PM 43.0000 -82.3667 270° West 450 518 26,000  Level Toronto Center
Sun 04:16:43 PM 43.0000 -82.5500 270° West 450 518 26,000  Level Toronto Center
Sun 04:17:45 PM 43.0011 -82.7122 271° West 459 528 26,000  Level Cleveland Center
Sun 04:18:46 PM 42.9958 -82.8825 268° West 459 528 26,000  Level Cleveland Center
Sun 04:19:45 PM 42.9903 -83.0553 268° West 459 528 26,000  Level Cleveland Center
Sun 04:20:45 PM 42.9822 -83.2283 266° West 459 528 26,000  Level Cleveland Center
Sun 04:21:46 PM 42.9781 -83.4011 268° West 459 528 26,000  Level Cleveland Center
Sun 04:22:46 PM 42.9717 -83.5711 267° West 459 528 26,000  Level Cleveland Center
Sun 04:23:45 PM 42.9653 -83.7356 267° West 454 522 26,000  Level Cleveland Center
Sun 04:24:46 PM 42.9522 -83.9022 264° West 454 522 26,000  Level Cleveland Center
Sun 04:25:45 PM 42.9328 -84.0714 261° West 449 517 26,000  Level Cleveland Center
Sun 04:27:43 PM 42.8833 -84.4167 259° West 450 518 26,000  Level Toronto Center
Sun 04:28:04 PM 42.8994 -84.4419 311° West 450 518 26,000  Level Chicago Center
Sun 04:29:06 PM 42.8786 -84.6411 262° West 443 510 26,000  Level Chicago Center
Sun 04:30:08 PM 42.8614 -84.8028 262° West 434 499 26,000  Level Chicago Center
Sun 04:31:10 PM 42.8450 -84.9644 262° West 431 496 26,000  Level Chicago Center
Sun 04:32:12 PM 42.8278 -85.1261 262° West 432 497 26,000 -339 Level Chicago Center
Sun 04:33:14 PM 42.8103 -85.2844 261° West 426 490 25,300 -816 Descending Chicago Center
Sun 04:34:17 PM 42.7942 -85.4306 262° West 397 457 24,300 -1,104 Descending Chicago Center
Sun 04:35:19 PM 42.7678 -85.6053 258° West 388 447 23,000 -1,065 Descending Chicago Center
Sun 04:36:21 PM 42.7419 -85.7447 256° West 386 444 22,100 -968 Descending Chicago Center
Sun 04:37:23 PM 42.7161 -85.8858 256° West 384 442 21,000 -968 Descending Chicago Center
Sun 04:38:25 PM 42.6903 -86.0253 256° West 379 436 20,100 -484 Descending Chicago Center
Sun 04:39:27 PM 42.6647 -86.1694 256° West 386 444 20,000 -48 Descending Chicago Center
Sun 04:40:29 PM 42.6361 -86.3194 256° West 402 463 20,000 -97 Level Chicago Center
Sun 04:41:31 PM 42.6089 -86.4653 256° West 399 459 19,800 -1,548 Descending Chicago Center
Sun 04:42:33 PM 42.5775 -86.6342 256° West 387 445 16,800 -2,806 Descending Chicago Center
Sun 04:43:35 PM 42.5514 -86.7689 255° West 372 428 14,000 -2,516 Descending Chicago Center
Sun 04:44:37 PM 42.5142 -86.8936 248° West 360 414 11,600 -1,742 Descending Chicago Center
Sun 04:45:39 PM 42.4847 -87.0086 251° West 333 383 10,400 -1,113 Descending Chicago Center
Sun 04:46:41 PM 42.4542 -87.1083 247° West 293 337 9,300 -677 Descending Chicago Center
Sun 04:47:43 PM 42.4267 -87.2097 250° West 288 331 9,000 -145 Descending Chicago Center
Sun 04:48:45 PM 42.3939 -87.3292 250° West 285 328 9,000  Level Chicago Center
Sun 04:49:48 PM 42.3667 -87.4125 246° West 255 293 9,000 -384 Level Chicago Center
Sun 04:50:50 PM 42.3406 -87.4936 246° West 240 276 8,200 -919 Descending Chicago Center
Sun 04:51:52 PM 42.3017 -87.5622 233° Southwest 232 267 7,100 -581 Descending Chicago Center
Sun 04:52:54 PM 42.2522 -87.6153 218° Southwest 229 264 7,000 -484 Descending Chicago Center
Sun 04:53:56 PM 42.1947 -87.6800 220° Southwest 225 259 6,100 -1,210 Descending Chicago Center
Sun 04:54:58 PM 42.1450 -87.7314 217° Southwest 224 258 4,500 -1,548 Descending Chicago Center

Login

Don't have an account? Register now (free) for customized features, flight alerts, and more!